Time;durP1;ratioP1;P1;durP2;ratioP2;P2;SDS_P1;SDS_P2;PMS_P1;PMS_P2;Temp;Humidity;BMP_temperature;BMP_pressure;BME280_temperature;BME280_humidity;BME280_pressure;Samples;Min_cycle;Max_cycle;Signal;HPM_P1;HPM_P2
2024/02/07 00:00:25;;;;;;;6.35;0.70;;;6.40;99.90;;;;;;4962818;28;20055;-82
2024/02/07 00:02:52;;;;;;;3.83;0.60;;;6.30;99.90;;;;;;4961244;28;20054;-82
2024/02/07 00:05:18;;;;;;;6.60;0.70;;;6.20;99.90;;;;;;4962974;28;20034;-90
2024/02/07 00:07:45;;;;;;;5.22;0.50;;;6.30;99.90;;;;;;4945658;28;20041;-89
2024/02/07 00:10:12;;;;;;;4.45;0.55;;;6.30;99.90;;;;;;4964377;28;20484;-86
2024/02/07 00:12:38;;;;;;;8.93;0.88;;;6.30;99.90;;;;;;4963034;28;20059;-81
2024/02/07 00:15:05;;;;;;;5.57;0.70;;;6.20;99.90;;;;;;4931603;28;20039;-88
2024/02/07 00:17:32;;;;;;;5.40;0.55;;;6.20;99.90;;;;;;4979644;28;20054;-88
2024/02/07 00:19:58;;;;;;;5.03;0.65;;;6.30;99.90;;;;;;4965125;28;20497;-81
2024/02/07 00:22:24;;;;;;;8.90;1.05;;;6.20;99.90;;;;;;4963635;28;20070;-85
2024/02/07 00:24:51;;;;;;;7.65;0.60;;;6.30;99.90;;;;;;4964366;28;20043;-89
2024/02/07 00:27:17;;;;;;;3.50;0.95;;;6.20;99.90;;;;;;4947517;28;20556;-88
2024/02/07 00:29:44;;;;;;;5.45;0.50;;;6.20;99.90;;;;;;4948774;28;20047;-87
2024/02/07 00:32:10;;;;;;;4.53;0.43;;;6.20;99.90;;;;;;4931758;28;20054;-84
2024/02/07 00:34:37;;;;;;;3.75;0.50;;;6.20;99.90;;;;;;4945835;28;20043;-86
2024/02/07 00:37:03;;;;;;;7.00;0.50;;;6.20;99.90;;;;;;4946259;28;20055;-87
2024/02/07 00:39:30;;;;;;;5.38;0.50;;;6.30;99.90;;;;;;4948607;28;20507;-82
2024/02/07 00:41:56;;;;;;;3.33;0.40;;;6.30;99.90;;;;;;4919623;29;20031;-87
2024/02/07 00:44:23;;;;;;;7.53;0.70;;;6.30;99.90;;;;;;4966620;28;20498;-85
2024/02/07 00:46:51;;;;;;;5.25;0.90;;;6.40;99.90;;;;;;4966944;28;20610;-85
2024/02/07 00:49:17;;;;;;;7.15;0.75;;;6.40;99.90;;;;;;4967349;28;20031;-84
2024/02/07 00:51:43;;;;;;;6.13;0.40;;;6.40;99.90;;;;;;4936154;28;20039;-86
2024/02/07 00:54:10;;;;;;;8.57;0.40;;;6.30;99.90;;;;;;4965680;28;20035;-81
2024/02/07 00:56:36;;;;;;;3.83;0.50;;;6.40;99.90;;;;;;4966602;28;20485;-85
2024/02/07 00:59:03;;;;;;;5.53;0.70;;;6.40;99.90;;;;;;4951156;28;20143;-86
2024/02/07 01:01:29;;;;;;;7.80;0.50;;;6.40;99.90;;;;;;4966078;28;20043;-86
2024/02/07 01:03:56;;;;;;;3.35;0.55;;;6.40;99.90;;;;;;4948892;28;20471;-84
2024/02/07 01:06:22;;;;;;;8.57;0.55;;;6.40;99.90;;;;;;4963209;28;20035;-80
2024/02/07 01:08:49;;;;;;;8.75;0.73;;;6.30;99.90;;;;;;4965747;28;20034;-82
2024/02/07 01:11:15;;;;;;;3.95;0.47;;;6.30;99.90;;;;;;4947863;28;20042;-84
2024/02/07 01:13:42;;;;;;;4.32;0.40;;;6.20;99.90;;;;;;4964193;28;20051;-84
2024/02/07 01:16:08;;;;;;;7.57;0.85;;;6.30;99.90;;;;;;4949211;28;20031;-82
2024/02/07 01:18:35;;;;;;;5.70;0.60;;;6.20;99.90;;;;;;4963186;28;20036;-82
2024/02/07 01:21:02;;;;;;;6.90;0.70;;;6.20;99.90;;;;;;4950709;28;20046;-81
2024/02/07 01:23:28;;;;;;;3.63;0.47;;;6.20;99.90;;;;;;4950022;28;20513;-84
2024/02/07 01:25:54;;;;;;;4.22;0.57;;;6.20;99.90;;;;;;4964603;28;20046;-83
2024/02/07 01:28:21;;;;;;;7.25;0.60;;;6.20;99.90;;;;;;4933935;28;20032;-84
2024/02/07 01:30:47;;;;;;;6.90;0.60;;;6.10;99.90;;;;;;4934796;28;20062;-82
2024/02/07 01:33:14;;;;;;;7.75;0.93;;;6.20;99.90;;;;;;4952699;28;20536;-85
2024/02/07 01:35:41;;;;;;;9.55;0.63;;;6.20;99.90;;;;;;4965330;28;20043;-85
2024/02/07 01:38:07;;;;;;;6.25;0.50;;;6.10;99.90;;;;;;4964419;28;20533;-85
2024/02/07 01:40:42;;;;;;;5.60;0.70;;;6.10;99.90;;;;;;4970679;28;20031;-84
2024/02/07 01:43:09;;;;;;;6.10;0.85;;;6.10;99.90;;;;;;4964276;28;20035;-85
2024/02/07 01:45:37;;;;;;;6.47;0.60;;;6.10;99.90;;;;;;4965106;28;20042;-81
2024/02/07 01:48:04;;;;;;;5.82;0.60;;;6.10;99.90;;;;;;4947898;28;20292;-84
2024/02/07 01:50:31;;;;;;;6.25;0.70;;;6.10;99.90;;;;;;4933756;28;20035;-83
2024/02/07 01:53:03;;;;;;;4.63;0.70;;;6.00;99.90;;;;;;4963219;28;21054;-81
2024/02/07 01:55:31;;;;;;;5.03;0.60;;;6.00;99.90;;;;;;4981778;28;20038;-81
2024/02/07 01:58:00;;;;;;;3.15;0.68;;;6.00;99.90;;;;;;4964958;28;20513;-80
2024/02/07 02:00:27;;;;;;;6.40;0.70;;;6.00;99.90;;;;;;4953336;28;20039;-82
2024/02/07 02:02:54;;;;;;;5.72;0.60;;;6.00;99.90;;;;;;4946481;28;20047;-83
2024/02/07 02:05:21;;;;;;;6.95;0.80;;;6.00;99.90;;;;;;4915352;28;20051;-84
2024/02/07 02:07:47;;;;;;;4.10;0.65;;;6.10;99.90;;;;;;4932830;28;20608;-84
2024/02/07 02:10:14;;;;;;;6.57;1.00;;;6.10;99.90;;;;;;4964031;28;20031;-83
2024/02/07 02:12:42;;;;;;;7.32;0.90;;;6.10;99.90;;;;;;4948029;28;20039;-83
2024/02/07 02:15:10;;;;;;;6.60;1.00;;;6.00;99.90;;;;;;4961807;28;20035;-82
2024/02/07 02:17:36;;;;;;;10.00;0.90;;;6.00;99.90;;;;;;4964252;28;20043;-83
2024/02/07 02:20:05;;;;;;;7.72;1.05;;;5.90;99.90;;;;;;4949134;28;20059;-82
2024/02/07 02:22:53;;;;;;;6.45;1.02;;;5.90;99.90;;;;;;4950989;28;20051;-80
2024/02/07 02:25:57;;;;;;;4.78;0.68;;;5.80;99.90;;;;;;4946632;28;20054;-82
2024/02/07 02:28:27;;;;;;;8.18;0.70;;;5.80;99.90;;;;;;4960378;28;20482;-81
2024/02/07 02:30:57;;;;;;;4.63;0.50;;;5.70;99.90;;;;;;4962318;28;20039;-81
2024/02/07 02:33:26;;;;;;;5.72;0.77;;;5.70;99.90;;;;;;4963166;28;20039;-82
2024/02/07 02:35:54;;;;;;;8.32;0.93;;;5.60;99.90;;;;;;4946609;28;21690;-82
2024/02/07 02:38:23;;;;;;;4.28;0.60;;;5.60;99.90;;;;;;4962714;28;20031;-80
2024/02/07 02:40:50;;;;;;;7.63;0.60;;;5.60;99.90;;;;;;4962916;28;20676;-81
2024/02/07 02:43:16;;;;;;;7.45;0.50;;;5.60;99.90;;;;;;4962881;28;20031;-81
2024/02/07 02:45:42;;;;;;;5.95;0.70;;;5.60;99.90;;;;;;4980274;28;20414;-80
2024/02/07 02:48:09;;;;;;;3.72;0.55;;;5.60;99.90;;;;;;4947941;28;20065;-81
2024/02/07 02:50:35;;;;;;;4.15;0.45;;;5.60;99.90;;;;;;4948581;28;20042;-81
2024/02/07 02:53:02;;;;;;;3.90;0.88;;;5.70;99.90;;;;;;4948524;28;20047;-82
2024/02/07 02:55:29;;;;;;;7.05;0.80;;;5.70;99.90;;;;;;4932482;28;20410;-82
2024/02/07 02:57:58;;;;;;;9.93;0.88;;;5.60;99.90;;;;;;4964234;28;20066;-81
2024/02/07 03:00:27;;;;;;;5.38;0.50;;;5.50;99.90;;;;;;4962972;28;20482;-83
2024/02/07 03:02:57;;;;;;;7.53;0.70;;;5.50;99.90;;;;;;4946491;28;20050;-83
2024/02/07 03:08:21;;;;;;;;;;;5.40;99.90;;;;;;4949310;28;20433;-81
2024/02/07 03:10:49;;;;;;;7.07;1.20;;;5.20;99.90;;;;;;4965065;28;19914;-82
2024/02/07 03:13:16;;;;;;;5.65;0.80;;;5.20;99.90;;;;;;4954055;28;20058;-83
2024/02/07 03:15:43;;;;;;;5.70;0.70;;;5.10;99.90;;;;;;4950476;28;20059;-82
2024/02/07 03:18:10;;;;;;;3.85;0.50;;;5.10;99.90;;;;;;4948187;28;20371;-82
2024/02/07 03:20:37;;;;;;;7.00;1.00;;;5.10;99.90;;;;;;4947578;28;20047;-82
2024/02/07 03:23:03;;;;;;;6.43;0.70;;;5.10;99.90;;;;;;4932889;28;21128;-81
2024/02/07 03:25:33;;;;;;;9.25;0.60;;;5.10;99.90;;;;;;4962689;28;20043;-81
2024/02/07 03:28:02;;;;;;;4.35;0.60;;;5.00;99.90;;;;;;4964229;28;20031;-84
2024/02/07 03:30:28;;;;;;;4.80;0.50;;;5.00;99.90;;;;;;4963191;28;20047;-83
2024/02/07 03:32:56;;;;;;;4.68;0.50;;;5.00;99.90;;;;;;4962063;28;20035;-82
2024/02/07 03:35:22;;;;;;;6.32;0.50;;;5.00;99.90;;;;;;4948158;28;20684;-83
2024/02/07 03:37:49;;;;;;;2.95;0.50;;;5.10;99.90;;;;;;4947777;28;20494;-83
2024/02/07 03:40:16;;;;;;;5.55;0.90;;;5.10;99.90;;;;;;4947583;28;20074;-81
2024/02/07 03:42:43;;;;;;;4.75;0.77;;;5.10;99.90;;;;;;4963040;28;20047;-84
2024/02/07 03:45:15;;;;;;;4.53;0.70;;;5.00;99.90;;;;;;4945799;28;20043;-84
2024/02/07 03:47:42;;;;;;;3.92;0.55;;;5.00;99.90;;;;;;4946446;28;20451;-82
2024/02/07 03:50:11;;;;;;;6.10;0.52;;;5.00;99.90;;;;;;4931015;28;20039;-83
2024/02/07 03:52:43;;;;;;;6.00;0.90;;;5.00;99.90;;;;;;4944513;28;20042;-84
2024/02/07 03:55:10;;;;;;;7.47;0.82;;;5.00;99.90;;;;;;4962148;28;20463;-84
2024/02/07 03:57:36;;;;;;;6.32;0.70;;;5.00;99.90;;;;;;4947755;28;20094;-83
2024/02/07 04:00:08;;;;;;;7.85;0.65;;;4.90;99.90;;;;;;4947967;28;20047;-81
2024/02/07 04:02:40;;;;;;;4.72;0.50;;;4.90;99.90;;;;;;4961923;28;20042;-82
2024/02/07 04:05:11;;;;;;;8.00;0.82;;;4.90;99.90;;;;;;4961805;28;20039;-81
2024/02/07 04:07:37;;;;;;;8.32;1.23;;;4.90;99.90;;;;;;4946489;28;20027;-83
2024/02/07 04:10:05;;;;;;;14.45;0.80;;;4.90;99.90;;;;;;4945485;28;20046;-81
2024/02/07 05:15:27;;;;;;;4.65;0.30;;;5.20;99.90;;;;;;4945035;28;20039;-81
2024/02/07 05:17:53;;;;;;;7.95;0.85;;;5.20;99.90;;;;;;4942725;28;20039;-79
2024/02/07 05:20:20;;;;;;;6.25;0.50;;;5.20;99.90;;;;;;4946947;28;20415;-80
2024/02/07 05:22:47;;;;;;;4.90;0.50;;;5.20;99.90;;;;;;4947347;28;20039;-80
2024/02/07 05:25:14;;;;;;;7.57;0.50;;;5.20;99.90;;;;;;4960560;28;20066;-80
2024/02/07 05:27:41;;;;;;;3.30;0.40;;;5.20;99.90;;;;;;4962496;28;20031;-80
2024/02/07 05:30:08;;;;;;;5.13;0.55;;;5.20;99.90;;;;;;4978741;28;20035;-79
2024/02/07 05:32:34;;;;;;;5.47;0.50;;;5.20;99.90;;;;;;4934318;28;20479;-80
2024/02/07 05:35:01;;;;;;;3.97;0.47;;;5.20;99.90;;;;;;4945962;28;20048;-80
2024/02/07 05:37:28;;;;;;;4.95;0.70;;;5.20;99.90;;;;;;4978229;28;20047;-80
2024/02/07 05:39:54;;;;;;;6.55;0.98;;;5.20;99.90;;;;;;4930931;28;20871;-80
2024/02/07 05:42:20;;;;;;;5.40;0.60;;;5.20;99.90;;;;;;4929956;28;21360;-79
2024/02/07 05:44:48;;;;;;;4.90;0.50;;;5.20;99.90;;;;;;4942673;28;20050;-80
2024/02/07 05:47:15;;;;;;;6.47;0.60;;;5.20;99.90;;;;;;4946456;28;20062;-80
2024/02/07 05:49:45;;;;;;;7.80;0.50;;;5.20;99.90;;;;;;4930887;28;20043;-80
2024/02/07 05:52:11;;;;;;;3.88;0.38;;;5.10;99.90;;;;;;4928465;28;20062;-80
2024/02/07 05:54:38;;;;;;;11.18;0.85;;;5.10;99.90;;;;;;4959426;28;20039;-80
2024/02/07 05:57:04;;;;;;;5.97;0.50;;;5.10;99.90;;;;;;4929000;28;20402;-79
2024/02/07 05:59:30;;;;;;;9.65;0.80;;;5.10;99.90;;;;;;4980627;28;20035;-79
2024/02/07 06:01:57;;;;;;;5.93;0.80;;;5.00;99.90;;;;;;4933700;28;20051;-79
2024/02/07 06:04:23;;;;;;;5.50;0.50;;;5.10;99.90;;;;;;4968628;28;20042;-79
2024/02/07 06:06:49;;;;;;;3.22;0.50;;;5.00;99.90;;;;;;4963130;28;20038;-79
2024/02/07 06:09:17;;;;;;;9.52;0.60;;;5.00;99.90;;;;;;4961404;28;20523;-80
2024/02/07 06:11:44;;;;;;;9.88;1.08;;;5.00;99.90;;;;;;4947282;28;20043;-80
2024/02/07 06:14:11;;;;;;;7.03;0.60;;;5.00;99.90;;;;;;4947434;28;20046;-80
2024/02/07 06:16:39;;;;;;;10.40;0.93;;;5.00;99.90;;;;;;4978760;28;20529;-80
2024/02/07 06:19:05;;;;;;;3.22;0.45;;;5.00;99.90;;;;;;4961787;28;20038;-80
2024/02/07 06:21:32;;;;;;;5.47;0.70;;;5.00;99.90;;;;;;4963515;28;20084;-80
2024/02/07 06:23:58;;;;;;;6.93;0.70;;;5.00;99.90;;;;;;4961922;28;20042;-79
2024/02/07 06:26:25;;;;;;;6.43;0.85;;;5.00;99.90;;;;;;4963194;28;20067;-79
2024/02/07 06:28:51;;;;;;;9.15;1.30;;;5.00;99.90;;;;;;4932513;28;20394;-79
2024/02/07 06:31:19;;;;;;;6.53;0.90;;;5.00;99.90;;;;;;4963937;28;20514;-79
2024/02/07 06:33:45;;;;;;;5.32;0.80;;;4.90;99.90;;;;;;4962954;28;20585;-79
2024/02/07 06:36:12;;;;;;;4.85;0.65;;;4.90;99.90;;;;;;4947023;28;20039;-79
2024/02/07 06:38:38;;;;;;;8.40;0.80;;;4.90;99.90;;;;;;4946422;28;20035;-79
2024/02/07 06:41:04;;;;;;;6.45;1.10;;;5.00;99.90;;;;;;4931829;28;20035;-80
2024/02/07 06:43:31;;;;;;;13.60;1.70;;;4.90;99.90;;;;;;4946423;28;20027;-79
2024/02/07 06:45:57;;;;;;;7.63;0.88;;;4.90;99.90;;;;;;4945367;28;20051;-79
2024/02/07 06:48:24;;;;;;;7.55;1.35;;;4.90;99.90;;;;;;4946588;28;20047;-78
2024/02/07 06:50:51;;;;;;;6.45;0.70;;;4.80;99.90;;;;;;4932938;28;20054;-78
2024/02/07 06:53:17;;;;;;;6.80;1.35;;;4.80;99.90;;;;;;4962982;28;20031;-78
2024/02/07 06:55:44;;;;;;;7.28;1.42;;;4.80;99.90;;;;;;4960432;28;20031;-78
2024/02/07 06:58:10;;;;;;;5.43;1.20;;;4.80;99.90;;;;;;4945800;28;20054;-77
2024/02/07 07:00:36;;;;;;;7.80;1.25;;;4.80;99.90;;;;;;4944963;28;20038;-77
2024/02/07 07:03:03;;;;;;;5.70;1.73;;;4.80;99.90;;;;;;4961232;28;20498;-77
2024/02/07 07:05:29;;;;;;;10.27;2.10;;;4.80;99.90;;;;;;4944663;28;20462;-78
2024/02/07 07:07:56;;;;;;;6.55;1.70;;;4.80;99.90;;;;;;4944919;28;20047;-77
2024/02/07 07:10:22;;;;;;;10.88;1.95;;;4.80;99.90;;;;;;4946465;28;20046;-77
2024/02/07 07:12:49;;;;;;;2.90;1.55;;;4.80;99.90;;;;;;4947217;28;20042;-77
2024/02/07 07:15:15;;;;;;;11.77;2.17;;;4.90;99.90;;;;;;4945021;28;20046;-78
2024/02/07 07:17:41;;;;;;;12.00;1.77;;;4.90;99.90;;;;;;4930127;28;20043;-78
2024/02/07 07:20:08;;;;;;;6.90;1.65;;;4.90;99.90;;;;;;4961954;28;20108;-77
2024/02/07 07:22:34;;;;;;;7.95;1.75;;;4.90;99.90;;;;;;4934695;28;20054;-78
2024/02/07 07:25:01;;;;;;;8.95;2.58;;;4.80;99.90;;;;;;4948210;28;20039;-78
2024/02/07 07:27:27;;;;;;;6.85;2.30;;;4.90;99.90;;;;;;4948180;28;20788;-78
2024/02/07 07:29:54;;;;;;;16.23;4.45;;;4.90;99.90;;;;;;4949450;28;20054;-78
2024/02/07 07:32:20;;;;;;;8.65;2.83;;;4.90;99.90;;;;;;4962186;28;20034;-81
2024/02/07 07:34:47;;;;;;;11.80;2.67;;;4.90;99.90;;;;;;4947474;28;20043;-77
2024/02/07 07:37:14;;;;;;;14.35;3.03;;;4.90;99.90;;;;;;4932705;28;20050;-78
2024/02/07 07:39:41;;;;;;;10.48;3.00;;;5.00;99.90;;;;;;4953531;28;20039;-78
2024/02/07 07:42:08;;;;;;;14.73;3.10;;;5.00;99.90;;;;;;4966971;28;20395;-77
2024/02/07 07:44:34;;;;;;;11.77;3.60;;;5.00;99.90;;;;;;4963641;28;20043;-78
2024/02/07 07:47:00;;;;;;;16.02;3.85;;;5.00;99.90;;;;;;4935354;28;20047;-78
2024/02/07 07:49:27;;;;;;;11.45;2.72;;;5.00;99.90;;;;;;4917263;28;20058;-78
2024/02/07 07:51:53;;;;;;;10.50;3.30;;;5.10;99.90;;;;;;4965283;28;20038;-78
2024/02/07 07:54:19;;;;;;;11.15;3.63;;;5.10;99.90;;;;;;4949865;28;20043;-78
2024/02/07 07:56:46;;;;;;;7.68;3.38;;;5.00;99.90;;;;;;4947170;28;20031;-78
2024/02/07 07:59:13;;;;;;;15.43;3.80;;;5.10;99.90;;;;;;4964490;28;20383;-79
2024/02/07 08:01:39;;;;;;;9.18;3.13;;;5.10;99.90;;;;;;4964581;28;20472;-78
2024/02/07 08:04:05;;;;;;;8.73;2.35;;;5.10;99.90;;;;;;4964981;28;20047;-78
2024/02/07 08:06:32;;;;;;;7.15;3.17;;;5.10;99.90;;;;;;4960875;28;20043;-79
2024/02/07 08:08:58;;;;;;;15.77;3.17;;;5.10;99.90;;;;;;4945164;28;20039;-79
2024/02/07 08:11:24;;;;;;;10.98;2.95;;;5.20;99.90;;;;;;4948313;28;20023;-78
2024/02/07 08:13:51;;;;;;;12.02;2.92;;;5.10;99.90;;;;;;4948605;28;20031;-78
2024/02/07 08:16:17;;;;;;;12.57;2.70;;;5.20;99.90;;;;;;4947474;28;20050;-78
2024/02/07 08:18:44;;;;;;;9.60;2.97;;;5.20;99.90;;;;;;4962504;28;20038;-78
2024/02/07 08:21:10;;;;;;;13.20;3.40;;;5.20;99.90;;;;;;4947666;28;20039;-78
2024/02/07 08:23:36;;;;;;;15.70;4.22;;;5.20;99.90;;;;;;4946781;28;20031;-78
2024/02/07 08:26:03;;;;;;;8.43;2.88;;;5.20;99.90;;;;;;4945617;28;20129;-79
2024/02/07 08:28:29;;;;;;;12.10;4.35;;;5.20;99.90;;;;;;4947983;28;20067;-78
2024/02/07 08:30:56;;;;;;;10.43;3.97;;;5.30;99.90;;;;;;4946252;28;20395;-79
2024/02/07 08:33:22;;;;;;;8.90;3.05;;;5.30;99.90;;;;;;4930692;28;20035;-80
2024/02/07 08:35:48;;;;;;;9.73;3.33;;;5.30;99.90;;;;;;4930356;28;20656;-80
2024/02/07 08:38:15;;;;;;;9.02;3.10;;;5.30;99.90;;;;;;4931715;28;20470;-80
2024/02/07 08:40:41;;;;;;;10.38;3.22;;;5.30;99.90;;;;;;4962329;28;20046;-80
2024/02/07 08:43:08;;;;;;;12.57;3.58;;;5.30;99.90;;;;;;4947472;28;20395;-79
2024/02/07 08:45:37;;;;;;;10.98;3.95;;;5.40;99.90;;;;;;4962028;28;20043;-79
2024/02/07 08:48:06;;;;;;;8.60;3.13;;;5.40;99.90;;;;;;4962761;28;20039;-80
2024/02/07 08:50:32;;;;;;;12.60;4.05;;;5.40;99.90;;;;;;4961634;28;20050;-80
2024/02/07 08:52:58;;;;;;;14.52;3.65;;;5.50;99.90;;;;;;4963287;28;20482;-81
2024/02/07 08:55:24;;;;;;;10.98;3.88;;;5.50;99.90;;;;;;4932289;28;20425;-80
2024/02/07 08:57:51;;;;;;;13.23;3.70;;;5.50;99.90;;;;;;4946671;28;20043;-81
2024/02/07 09:00:17;;;;;;;10.98;3.60;;;5.50;99.90;;;;;;4947959;28;20042;-78
2024/02/07 09:02:49;;;;;;;17.52;5.07;;;5.60;99.90;;;;;;4932796;28;20043;-78
2024/02/07 09:05:17;;;;;;;12.23;3.72;;;5.60;99.90;;;;;;4948250;28;20047;-78
2024/02/07 09:07:43;;;;;;;12.38;4.75;;;5.60;99.90;;;;;;4933221;28;20039;-79
2024/02/07 09:10:10;;;;;;;12.68;4.97;;;5.60;99.90;;;;;;4965658;28;20035;-77
2024/02/07 09:12:37;;;;;;;14.38;5.40;;;5.60;99.90;;;;;;4964382;28;20102;-78
2024/02/07 09:15:03;;;;;;;11.90;4.40;;;5.70;99.90;;;;;;4964818;28;20418;-78
2024/02/07 09:17:33;;;;;;;14.10;4.88;;;5.60;99.90;;;;;;4964406;28;20414;-78
2024/02/07 09:20:00;;;;;;;15.73;4.63;;;5.70;99.90;;;;;;4979138;28;20043;-79
2024/02/07 09:22:26;;;;;;;15.70;5.40;;;5.70;99.90;;;;;;4934678;28;20036;-78
2024/02/07 09:24:53;;;;;;;11.63;3.92;;;5.70;99.90;;;;;;4966051;28;20644;-79
2024/02/07 09:27:20;;;;;;;10.10;4.20;;;5.70;99.90;;;;;;4968043;28;20035;-79
2024/02/07 09:29:46;;;;;;;11.75;4.93;;;5.70;99.90;;;;;;4935786;28;20419;-78
2024/02/07 09:32:12;;;;;;;10.35;3.78;;;5.80;99.90;;;;;;4949943;28;20035;-78
2024/02/07 09:34:43;;;;;;;12.18;4.40;;;5.80;99.90;;;;;;4965024;28;20039;-77
2024/02/07 09:37:09;;;;;;;15.02;4.63;;;5.90;99.90;;;;;;4949690;28;20031;-79
2024/02/07 09:39:35;;;;;;;17.08;4.15;;;6.00;99.90;;;;;;4966154;28;20042;-79
2024/02/07 09:42:07;;;;;;;10.98;3.22;;;6.10;99.90;;;;;;4948941;28;20766;-79
2024/02/07 09:44:35;;;;;;;19.17;4.03;;;6.10;99.90;;;;;;4932538;28;20059;-80
2024/02/07 09:47:04;;;;;;;18.75;4.10;;;6.20;99.90;;;;;;4966313;28;20046;-81
2024/02/07 09:49:31;;;;;;;16.23;3.83;;;6.20;99.90;;;;;;4962113;28;20553;-80
2024/02/07 09:51:57;;;;;;;17.90;4.05;;;6.20;99.90;;;;;;4964952;28;20038;-80
2024/02/07 09:54:24;;;;;;;17.27;5.15;;;6.30;99.90;;;;;;4933800;28;20039;-82
2024/02/07 09:56:52;;;;;;;16.33;4.43;;;6.30;99.90;;;;;;4934857;28;20047;-81
2024/02/07 09:59:19;;;;;;;14.45;4.20;;;6.30;99.90;;;;;;4965416;28;20394;-82
2024/02/07 10:01:47;;;;;;;18.25;4.53;;;6.30;99.90;;;;;;4950118;28;20604;-83
2024/02/07 10:04:21;;;;;;;10.77;4.45;;;6.30;99.90;;;;;;4932479;28;20043;-79
2024/02/07 10:06:49;;;;;;;15.30;5.78;;;6.40;99.90;;;;;;4947047;28;20050;-83
2024/02/07 10:09:17;;;;;;;25.40;5.82;;;6.50;99.90;;;;;;4964778;28;20035;-79
2024/02/07 10:11:46;;;;;;;11.23;3.63;;;6.50;99.90;;;;;;4949143;28;20058;-81
2024/02/07 10:14:13;;;;;;;15.00;2.95;;;6.50;99.90;;;;;;4964930;28;22687;-81
2024/02/07 10:16:39;;;;;;;12.07;2.78;;;6.50;99.90;;;;;;4965167;28;20039;-79
2024/02/07 10:19:06;;;;;;;11.68;3.08;;;6.50;99.90;;;;;;4965868;28;20055;-81
2024/02/07 10:21:34;;;;;;;16.42;2.47;;;6.50;99.90;;;;;;4948451;28;20047;-79
2024/02/07 10:24:04;;;;;;;18.02;4.00;;;6.50;99.90;;;;;;4948592;28;20039;-81
2024/02/07 10:26:30;;;;;;;16.30;1.92;;;6.40;99.90;;;;;;4932111;28;20046;-80
2024/02/07 10:29:01;;;;;;;16.55;2.60;;;6.40;99.90;;;;;;4946363;28;20051;-80
2024/02/07 10:31:28;;;;;;;13.35;2.05;;;6.40;99.90;;;;;;4935795;28;20046;-79
2024/02/07 10:33:58;;;;;;;13.65;2.28;;;6.30;99.90;;;;;;4962396;28;20027;-81
2024/02/07 10:36:24;;;;;;;13.60;2.30;;;6.40;99.90;;;;;;4959420;28;20127;-80
2024/02/07 10:38:53;;;;;;;13.93;2.80;;;6.40;99.90;;;;;;4941669;28;20050;-78
2024/02/07 10:41:20;;;;;;;14.98;2.40;;;6.40;99.90;;;;;;4947042;28;20050;-80
2024/02/07 10:43:46;;;;;;;14.10;2.40;;;6.50;99.90;;;;;;4933107;28;20035;-79
2024/02/07 10:46:14;;;;;;;15.82;2.22;;;6.50;99.90;;;;;;4928521;28;20055;-80
2024/02/07 10:48:41;;;;;;;22.17;3.00;;;6.50;99.90;;;;;;4960710;28;20054;-77
2024/02/07 10:51:07;;;;;;;9.77;1.67;;;6.50;99.90;;;;;;4932758;28;20514;-83
2024/02/07 10:53:36;;;;;;;16.83;2.45;;;6.50;99.90;;;;;;4964255;28;20038;-80
2024/02/07 10:56:04;;;;;;;20.27;3.03;;;6.60;99.90;;;;;;4932599;28;20043;-81
2024/02/07 10:58:32;;;;;;;19.60;3.25;;;6.60;99.90;;;;;;4964143;28;20588;-82
2024/02/07 11:00:59;;;;;;;13.35;2.72;;;6.60;99.90;;;;;;4962892;28;20054;-78
2024/02/07 11:03:29;;;;;;;9.77;2.25;;;6.60;99.90;;;;;;4961599;28;20054;-81
2024/02/07 11:05:59;;;;;;;19.27;3.17;;;6.70;99.90;;;;;;4947970;28;20050;-82
2024/02/07 11:08:26;;;;;;;19.67;3.92;;;6.70;99.90;;;;;;4961171;28;20054;-78
2024/02/07 11:10:53;;;;;;;12.63;3.00;;;6.80;99.90;;;;;;4962378;28;20042;-80
2024/02/07 11:13:20;;;;;;;30.63;3.78;;;6.90;99.90;;;;;;4958138;28;20703;-82
2024/02/07 11:15:47;;;;;;;16.10;3.00;;;7.00;99.90;;;;;;4965344;28;20046;-81
2024/02/07 11:18:13;;;;;;;14.40;1.85;;;7.10;99.90;;;;;;4947213;28;20043;-78
2024/02/07 11:20:44;;;;;;;17.20;2.00;;;7.20;99.90;;;;;;4963267;28;20035;-79
2024/02/07 11:23:24;;;;;;;18.27;2.60;;;7.20;99.90;;;;;;4961712;28;20066;-78
2024/02/07 11:25:52;;;;;;;15.43;2.10;;;7.30;99.90;;;;;;4963704;28;20047;-80
2024/02/07 11:28:19;;;;;;;20.00;1.95;;;7.20;99.90;;;;;;4965583;28;20039;-79
2024/02/07 11:30:49;;;;;;;16.85;1.70;;;7.30;99.90;;;;;;4946964;28;20042;-78
2024/02/07 11:33:15;;;;;;;13.13;1.42;;;7.30;99.90;;;;;;4963203;28;20046;-78
2024/02/07 11:35:41;;;;;;;12.63;1.48;;;7.30;99.90;;;;;;4946813;28;20039;-81
2024/02/07 11:38:09;;;;;;;30.33;3.10;;;7.30;99.90;;;;;;4932990;28;20031;-81
2024/02/07 11:40:41;;;;;;;14.77;1.48;;;7.30;99.90;;;;;;4961439;28;20643;-81
2024/02/07 11:43:10;;;;;;;16.23;1.30;;;7.30;99.90;;;;;;4943809;28;20043;-80
2024/02/07 11:45:41;;;;;;;20.08;1.92;;;7.30;99.90;;;;;;4958612;28;20038;-81
2024/02/07 11:48:23;;;;;;;22.38;1.33;;;7.30;99.90;;;;;;4929826;28;20585;-82
2024/02/07 11:50:52;;;;;;;15.13;1.50;;;7.20;99.90;;;;;;4945893;28;20047;-82
2024/02/07 11:53:20;;;;;;;10.60;1.58;;;7.20;99.90;;;;;;4948197;28;20368;-78
2024/02/07 11:55:48;;;;;;;19.33;2.10;;;7.20;99.90;;;;;;4930598;28;20046;-80
2024/02/07 11:58:17;;;;;;;15.52;2.15;;;7.10;99.90;;;;;;4930296;28;20035;-81
2024/02/07 12:00:45;;;;;;;14.48;1.20;;;7.10;99.90;;;;;;4932740;28;20027;-81
2024/02/07 12:03:16;;;;;;;14.32;1.55;;;7.10;99.90;;;;;;4932684;28;20418;-78
2024/02/07 12:05:43;;;;;;;12.02;1.10;;;7.10;99.90;;;;;;4979520;28;20047;-82
2024/02/07 12:08:11;;;;;;;16.58;2.08;;;7.00;99.90;;;;;;4961962;28;20043;-80
2024/02/07 12:10:37;;;;;;;10.20;1.40;;;7.00;99.90;;;;;;4949074;28;20046;-81
2024/02/07 12:13:03;;;;;;;12.43;1.13;;;7.10;99.90;;;;;;4948334;28;20039;-81
2024/02/07 12:15:31;;;;;;;15.77;1.60;;;7.10;99.90;;;;;;4947182;28;20062;-77
2024/02/07 12:17:58;;;;;;;22.75;2.50;;;7.10;99.90;;;;;;4932239;28;20039;-81
2024/02/07 12:20:29;;;;;;;16.80;1.40;;;7.00;99.90;;;;;;4947330;28;20047;-82
2024/02/07 12:23:02;;;;;;;6.28;0.70;;;7.00;99.90;;;;;;4977270;28;20039;-81
2024/02/07 12:25:29;;;;;;;10.80;1.10;;;7.00;99.90;;;;;;4963038;28;20391;-82
2024/02/07 12:27:55;;;;;;;8.18;0.98;;;7.00;99.90;;;;;;4961437;28;20039;-81
2024/02/07 12:30:22;;;;;;;14.15;1.00;;;7.10;99.90;;;;;;4945975;28;20040;-82
2024/02/07 12:32:49;;;;;;;10.38;0.75;;;7.20;99.90;;;;;;4945503;28;20055;-82
2024/02/07 12:35:17;;;;;;;9.98;0.77;;;7.20;99.90;;;;;;4961816;28;20035;-81
2024/02/07 12:37:43;;;;;;;8.15;0.77;;;7.30;99.90;;;;;;4961935;28;20050;-83
2024/02/07 12:40:13;;;;;;;12.38;0.98;;;7.30;99.90;;;;;;4950551;28;20046;-82
2024/02/07 12:42:39;;;;;;;10.40;0.93;;;7.30;99.90;;;;;;4949937;28;20069;-84
2024/02/07 12:45:09;;;;;;;10.75;1.00;;;7.30;99.90;;;;;;4934812;28;20043;-82
2024/02/07 12:47:36;;;;;;;8.25;1.05;;;7.20;99.90;;;;;;4935530;28;20058;-83
2024/02/07 12:50:03;;;;;;;22.33;1.65;;;7.30;99.90;;;;;;4966936;28;20050;-84
2024/02/07 12:52:29;;;;;;;8.05;1.13;;;7.30;99.90;;;;;;4965969;28;20031;-83
2024/02/07 12:54:56;;;;;;;12.52;1.17;;;7.30;99.90;;;;;;4935401;28;20031;-78
2024/02/07 12:57:23;;;;;;;16.20;2.90;;;7.30;99.90;;;;;;4982802;28;20478;-86
2024/02/07 12:59:51;;;;;;;11.05;2.05;;;7.40;99.90;;;;;;4955133;28;20459;-83
2024/02/07 13:02:19;;;;;;;9.50;1.30;;;7.50;99.90;;;;;;4969456;28;20061;-79
2024/02/07 13:04:46;;;;;;;8.23;1.30;;;7.50;99.90;;;;;;4949387;28;20058;-79
2024/02/07 13:07:15;;;;;;;9.30;1.02;;;7.60;99.90;;;;;;4947063;28;20047;-79
2024/02/07 13:09:43;;;;;;;7.05;0.80;;;7.70;99.90;;;;;;4964027;28;20031;-79
2024/02/07 13:12:09;;;;;;;7.53;1.05;;;7.80;99.90;;;;;;4966303;28;20395;-80
2024/02/07 13:14:38;;;;;;;7.10;0.70;;;7.90;99.90;;;;;;4949327;28;20395;-78
2024/02/07 13:17:05;;;;;;;8.02;0.70;;;8.00;99.90;;;;;;4932763;28;20039;-81
2024/02/07 13:19:31;;;;;;;16.08;1.42;;;8.10;99.90;;;;;;4931953;28;20214;-82
2024/02/07 13:21:57;;;;;;;12.55;1.55;;;8.10;99.90;;;;;;4966021;28;20476;-79
2024/02/07 13:24:24;;;;;;;5.13;0.95;;;8.20;99.90;;;;;;4918213;28;20039;-80
2024/02/07 13:26:51;;;;;;;7.82;0.77;;;8.20;99.90;;;;;;4930332;28;20510;-82
2024/02/07 13:29:18;;;;;;;10.07;1.63;;;8.30;99.90;;;;;;4932792;28;20039;-79
2024/02/07 13:31:45;;;;;;;8.07;0.77;;;8.40;99.90;;;;;;4947125;28;20047;-80
2024/02/07 13:34:13;;;;;;;8.23;0.80;;;8.50;99.90;;;;;;4964314;28;20042;-80
2024/02/07 13:36:40;;;;;;;10.25;1.15;;;8.60;99.90;;;;;;4915610;28;20039;-83
2024/02/07 13:39:07;;;;;;;13.63;1.23;;;8.70;99.90;;;;;;4950632;28;20992;-77
2024/02/07 13:41:34;;;;;;;11.15;0.80;;;8.80;99.90;;;;;;4950308;28;20035;-76
2024/02/07 13:44:01;;;;;;;7.82;1.10;;;8.70;99.90;;;;;;4965704;28;20031;-77
2024/02/07 13:46:30;;;;;;;14.48;1.75;;;8.80;99.90;;;;;;4964055;28;20035;-78
2024/02/07 13:48:59;;;;;;;12.93;3.15;;;8.70;99.90;;;;;;4964056;28;20047;-78
2024/02/07 13:51:26;;;;;;;12.38;1.77;;;8.70;99.90;;;;;;4936341;28;20038;-77
2024/02/07 13:53:53;;;;;;;16.70;3.28;;;8.60;99.90;;;;;;4965607;28;20039;-78
2024/02/07 13:56:20;;;;;;;17.45;4.13;;;8.50;99.90;;;;;;4934844;28;20035;-79
2024/02/07 13:58:46;;;;;;;13.82;1.65;;;8.50;99.90;;;;;;4981164;28;20035;-79